Time;durP1;ratioP1;P1;durP2;ratioP2;P2;SDS_P1;SDS_P2;PMS_P1;PMS_P2;Temp;Humidity;BMP_temperature;BMP_pressure;BME280_temperature;BME280_humidity;BME280_pressure;Samples;Min_cycle;Max_cycle;Signal;HPM_P1;HPM_P2
2022/11/15 00:02:25;;;;;;;;;;;;;;;13.32;62.24;100940.41;5038794;28;20435;-71
2022/11/15 00:04:51;;;;;;;;;;;;;;;14.07;59.57;100935.53;5040365;28;19917;-74
2022/11/15 00:07:16;;;;;;;;;;;;;;;13.46;61.43;100936.38;5041748;28;20261;-75
2022/11/15 00:09:42;;;;;;;;;;;;;;;13.88;60.25;100920.63;5041834;28;20355;-73
2022/11/15 00:12:07;;;;;;;;;;;;;;;13.34;61.45;100918.56;5038739;28;19921;-73
2022/11/15 00:14:32;;;;;;;;;;;;;;;14.34;58.90;100920.31;5034198;28;20278;-72
2022/11/15 00:16:57;;;;;;;;;;;;;;;14.17;59.43;100916.75;5035026;28;19916;-74
2022/11/15 00:19:22;;;;;;;;;;;;;;;14.60;58.19;100916.09;5040118;28;19921;-73
2022/11/15 00:21:48;;;;;;;;;;;;;;;14.24;58.98;100913.91;5041854;28;19913;-73
2022/11/15 00:24:13;;;;;;;;;;;;;;;14.64;57.92;100909.91;5043221;28;20035;-73
2022/11/15 00:26:38;;;;;;;;;;;;;;;14.38;58.81;100921.47;5048942;28;19915;-74
2022/11/15 00:29:03;;;;;;;;;;;;;;;14.34;59.16;100911.38;5032089;28;20279;-73
2022/11/15 00:31:29;;;;;;;;;;;;;;;14.54;58.06;100915.22;5031875;28;19917;-72
2022/11/15 00:33:54;;;;;;;;;;;;;;;14.37;59.15;100919.81;5030258;28;20351;-73
2022/11/15 00:36:19;;;;;;;;;;;;;;;14.46;59.11;100910.22;5031448;28;20389;-73
2022/11/15 00:38:44;;;;;;;;;;;;;;;13.96;59.70;100904.81;5031479;28;19924;-72
2022/11/15 00:41:09;;;;;;;;;;;;;;;13.70;60.75;100918.97;5029970;28;19917;-73
2022/11/15 00:43:35;;;;;;;;;;;;;;;13.55;62.55;100912.47;5044779;28;19917;-73
2022/11/15 00:46:02;;;;;;;;;;;;;;;14.09;60.47;100898.28;5051285;28;19966;-72
2022/11/15 00:48:27;;;;;;;;;;;;;;;14.71;58.80;100888.94;5051243;28;19923;-75
2022/11/15 00:50:52;;;;;;;;;;;;;;;13.91;61.14;100899.34;5050216;28;19905;-73
2022/11/15 00:53:17;;;;;;;;;;;;;;;14.32;60.08;100900.00;5051108;28;20312;-74
2022/11/15 00:55:43;;;;;;;;;;;;;;;14.43;59.55;100894.47;5051142;28;19947;-72
2022/11/15 00:58:08;;;;;;;;;;;;;;;14.39;59.27;100903.34;5051207;28;19912;-73
2022/11/15 01:00:34;;;;;;;;;;;;;;;14.35;59.87;100913.84;5051068;28;20008;-73
2022/11/15 01:03:02;;;;;;;;;;;;;;;14.31;60.33;100915.38;5051782;28;19913;-73
2022/11/15 01:05:28;;;;;;;;;;;;;;;14.58;59.49;100892.00;5051862;28;19909;-73
2022/11/15 01:07:53;;;;;;;;;;;;;;;14.64;60.00;100872.06;5051528;28;19979;-75
2022/11/15 01:10:19;;;;;;;;;;;;;;;14.66;60.22;100880.72;5045229;28;19935;-74
2022/11/15 01:12:44;;;;;;;;;;;;;;;14.61;60.71;100871.75;5031645;28;19917;-75
2022/11/15 01:15:09;;;;;;;;;;;;;;;14.40;61.38;100867.13;5031432;28;19967;-73
2022/11/15 01:17:34;;;;;;;;;;;;;;;14.88;60.03;100872.63;5031900;28;19916;-74
2022/11/15 01:20:01;;;;;;;;;;;;;;;14.50;61.66;100873.50;5031064;28;19921;-74
2022/11/15 01:22:27;;;;;;;;;;;;;;;14.40;62.56;100867.97;5031316;28;19967;-73
2022/11/15 01:24:52;;;;;;;;;;;;;;;14.26;62.69;100863.94;5045452;28;20368;-72
2022/11/15 01:27:17;;;;;;;;;;;;;;;14.66;61.74;100867.22;5051064;28;19947;-73
2022/11/15 01:29:42;;;;;;;;;;;;;;;14.39;62.40;100871.72;5051500;28;19935;-72
2022/11/15 01:32:08;;;;;;;;;;;;;;;14.66;62.17;100869.91;5051288;28;19971;-73
2022/11/15 01:34:33;;;;;;;;;;;;;;;13.89;65.23;100873.63;5051260;28;19916;-75
2022/11/15 01:36:58;;;;;;;;;;;;;;;13.98;64.84;100866.75;5050871;28;19917;-74
2022/11/15 01:39:24;;;;;;;;;;;;;;;14.64;62.88;100868.56;5050497;28;19925;-73
2022/11/15 01:41:49;;;;;;;;;;;;;;;14.39;63.41;100860.06;5049790;28;19974;-74
2022/11/15 01:44:33;;;;;;;;;;;;;;;14.73;61.98;100850.81;5051317;28;19917;-75
2022/11/15 01:47:00;;;;;;;;;;;;;;;14.26;64.54;100847.72;5050941;28;20003;-73
2022/11/15 01:49:27;;;;;;;;;;;;;;;14.87;62.61;100852.88;5051016;28;19920;-74
2022/11/15 01:51:53;;;;;;;;;;;;;;;15.07;61.77;100835.22;5051091;28;20004;-77
2022/11/15 01:54:20;;;;;;;;;;;;;;;15.04;62.04;100838.44;5050902;28;20348;-72
2022/11/15 01:56:51;;;;;;;;;;;;;;;14.66;63.82;100848.28;5051299;28;19911;-73
2022/11/15 01:59:18;;;;;;;;;;;;;;;14.88;63.33;100840.16;5050642;28;19925;-75
2022/11/15 02:01:43;;;;;;;;;;;;;;;14.60;63.80;100838.47;5051313;28;19913;-74
2022/11/15 02:04:08;;;;;;;;;;;;;;;13.95;66.89;100842.94;5038457;28;19948;-73
2022/11/15 02:06:34;;;;;;;;;;;;;;;13.74;67.27;100846.38;5034718;28;19913;-74
2022/11/15 02:09:00;;;;;;;;;;;;;;;14.57;65.10;100838.16;5034194;28;20003;-72
2022/11/15 02:11:25;;;;;;;;;;;;;;;14.60;64.76;100835.75;5034807;28;20132;-75
2022/11/15 02:13:51;;;;;;;;;;;;;;;14.43;65.50;100843.13;5034440;28;19939;-74
2022/11/15 02:16:36;;;;;;;;;;;;;;;13.93;67.42;100843.19;5034334;28;20354;-74
2022/11/15 02:19:01;;;;;;;;;;;;;;;14.49;65.70;100828.59;4992187;28;19972;-73
2022/11/15 02:21:43;;;;;;;;;;;;;;;14.84;64.88;100839.84;4992182;28;19953;-74
2022/11/15 02:24:14;;;;;;;;;;;;;;;14.54;66.03;100825.16;5000401;28;19909;-73
2022/11/15 02:26:42;;;;;;;;;;;;;;;14.61;65.56;100831.16;5012188;28;19909;-75
2022/11/15 02:29:10;;;;;;;;;;;;;;;14.52;66.23;100830.81;5011388;28;20018;-73
2022/11/15 02:31:44;;;;;;;;;;;;;;;14.53;65.97;100827.03;5011894;28;19917;-73
2022/11/15 02:34:17;;;;;;;;;;;;;;;14.83;64.80;100818.47;5011784;28;20436;-73
2022/11/15 02:36:42;;;;;;;;;;;;;;;14.91;64.53;100813.44;5011611;28;19921;-73
2022/11/15 02:39:07;;;;;;;;;;;;;;;14.70;65.48;100814.25;5011534;28;20004;-74
2022/11/15 02:41:42;;;;;;;;;;;;;;;15.11;64.28;100812.00;5012357;28;20004;-73
2022/11/15 02:44:11;;;;;;;;;;;;;;;15.35;63.19;100821.44;5011915;28;20028;-72
2022/11/15 02:49:34;;;;;;;;;;;;;;;15.35;63.11;100816.03;5011779;28;19972;-75
2022/11/15 02:51:59;;;;;;;;;;;;;;;15.32;63.45;100808.41;5011721;28;19925;-73
2022/11/15 02:54:26;;;;;;;;;;;;;;;15.09;64.17;100806.03;5010994;28;19939;-72
2022/11/15 02:56:54;;;;;;;;;;;;;;;15.22;63.99;100800.19;5029506;28;20345;-73
2022/11/15 02:59:25;;;;;;;;;;;;;;;15.29;63.99;100798.09;5033483;28;19932;-72
2022/11/15 03:01:50;;;;;;;;;;;;;;;15.27;63.88;100786.72;5033150;28;19913;-73
2022/11/15 03:04:26;;;;;;;;;;;;;;;15.49;63.08;100788.28;5033947;28;20008;-74
2022/11/15 03:07:03;;;;;;;;;;;;;;;15.25;64.07;100786.16;5041497;28;19938;-74
2022/11/15 03:09:33;;;;;;;;;;;;;;;14.94;65.37;100787.72;5051556;28;19928;-72
2022/11/15 03:12:11;;;;;;;;;;;;;;;15.07;65.64;100786.50;5053227;28;19917;-72
2022/11/15 03:14:41;;;;;;;;;;;;;;;15.18;65.34;100775.53;5053754;28;20010;-73
2022/11/15 03:17:14;;;;;;;;;;;;;;;15.21;65.28;100771.50;5052595;28;19917;-73
2022/11/15 03:19:42;;;;;;;;;;;;;;;15.32;64.56;100778.63;5053134;28;19920;-73
2022/11/15 03:22:11;;;;;;;;;;;;;;;15.16;65.48;100777.66;5038132;28;19917;-73
2022/11/15 03:24:38;;;;;;;;;;;;;;;15.81;62.84;100772.00;5045126;28;19950;-74
2022/11/15 03:27:05;;;;;;;;;;;;;;;15.84;63.37;100776.91;5052920;28;19988;-73
2022/11/15 03:29:35;;;;;;;;;;;;;;;15.89;62.81;100771.50;5052034;28;19912;-74
2022/11/15 03:32:06;;;;;;;;;;;;;;;15.81;63.02;100764.69;5052837;28;19921;-75
2022/11/15 03:34:44;;;;;;;;;;;;;;;15.91;63.03;100765.81;5053643;28;20023;-73
2022/11/15 03:37:10;;;;;;;;;;;;;;;15.75;63.47;100754.88;5052980;28;19942;-72
2022/11/15 03:39:36;;;;;;;;;;;;;;;15.86;63.05;100757.66;5052229;28;19928;-74
2022/11/15 03:42:05;;;;;;;;;;;;;;;15.72;63.57;100754.59;5052926;28;19916;-72
2022/11/15 03:44:39;;;;;;;;;;;;;;;15.93;63.59;100761.78;5053375;28;19908;-73
2022/11/15 03:47:23;;;;;;;;;;;;;;;16.09;62.61;100757.25;5052880;28;19920;-74
2022/11/15 03:49:53;;;;;;;;;;;;;;;15.94;62.93;100752.56;5052986;28;20005;-74
2022/11/15 03:52:19;;;;;;;;;;;;;;;16.19;62.23;100760.00;5052828;28;19982;-74
2022/11/15 03:54:48;;;;;;;;;;;;;;;16.06;63.56;100747.75;5053033;28;19995;-74
2022/11/15 03:57:13;;;;;;;;;;;;;;;16.39;62.10;100768.25;5052508;28;19912;-74
2022/11/15 03:59:38;;;;;;;;;;;;;;;16.22;62.48;100762.19;5053291;28;19943;-73
2022/11/15 04:02:03;;;;;;;;;;;;;;;16.05;63.89;100759.69;5051299;28;19940;-74
2022/11/15 04:04:29;;;;;;;;;;;;;;;16.09;63.70;100760.78;5052561;28;20005;-73
2022/11/15 04:06:54;;;;;;;;;;;;;;;16.45;62.52;100759.84;5052030;28;19917;-72
2022/11/15 04:09:19;;;;;;;;;;;;;;;16.16;63.50;100753.22;5052197;28;20046;-75
2022/11/15 04:11:44;;;;;;;;;;;;;;;16.11;63.55;100757.81;5053177;28;19917;-73
2022/11/15 04:14:09;;;;;;;;;;;;;;;15.89;64.94;100757.13;5051987;28;19939;-74
2022/11/15 04:16:35;;;;;;;;;;;;;;;16.15;63.69;100761.63;5052378;28;19936;-74
2022/11/15 04:24:27;;;;;;;;;;;;;;;16.15;64.34;100762.44;5041111;28;20346;-73
2022/11/15 04:26:53;;;;;;;;;;;;;;;16.04;64.77;100766.16;5033442;28;20015;-74
2022/11/15 04:29:36;;;;;;;;;;;;;;;16.16;64.03;100764.06;5051874;28;19921;-73
2022/11/15 04:32:03;;;;;;;;;;;;;;;16.26;63.41;100760.59;5052452;28;19939;-74
2022/11/15 04:34:28;;;;;;;;;;;;;;;16.38;63.18;100756.56;5052469;28;19963;-73
2022/11/15 04:37:11;;;;;;;;;;;;;;;16.52;62.79;100760.47;5051760;28;20313;-73
2022/11/15 04:39:37;;;;;;;;;;;;;;;16.24;63.86;100762.75;5050204;28;19929;-75
2022/11/15 04:42:02;;;;;;;;;;;;;;;16.54;63.27;100763.72;5051915;28;19953;-73
2022/11/15 04:44:27;;;;;;;;;;;;;;;16.52;63.19;100767.78;5052529;28;19909;-73
2022/11/15 04:46:52;;;;;;;;;;;;;;;16.81;62.62;100765.41;5051972;28;19917;-73
2022/11/15 04:49:18;;;;;;;;;;;;;;;16.27;64.45;100754.09;5052372;28;19940;-73
2022/11/15 04:51:43;;;;;;;;;;;;;;;16.52;63.66;100759.66;5050563;28;19912;-74
2022/11/15 04:54:08;;;;;;;;;;;;;;;16.52;63.85;100762.34;5050448;28;19920;-74
2022/11/15 04:56:34;;;;;;;;;;;;;;;16.12;65.35;100762.97;5050376;28;19909;-75
2022/11/15 04:58:59;;;;;;;;;;;;;;;16.62;64.01;100763.22;5051760;28;20295;-73
2022/11/15 05:01:24;;;;;;;;;;;;;;;16.73;63.54;100755.91;5047796;28;20055;-73
2022/11/15 05:06:33;;;;;;;;;;;;;;;16.88;63.18;100757.84;5051697;28;20502;-74
2022/11/15 05:08:59;;;;;;;;;;;;;;;17.03;62.39;100758.69;5049863;28;19956;-75
2022/11/15 05:11:24;;;;;;;;;;;;;;;17.03;62.39;100760.56;5051771;28;19917;-73
2022/11/15 05:13:49;;;;;;;;;;;;;;;16.54;63.35;100757.47;5051508;28;19916;-74
2022/11/15 05:16:15;;;;;;;;;;;;;;;16.44;64.88;100760.94;5051878;28;19916;-74
2022/11/15 05:18:40;;;;;;;;;;;;;;;16.82;64.24;100753.50;5051539;28;19974;-74
2022/11/15 05:21:10;;;;;;;;;;;;;;;16.59;64.34;100755.59;5052180;28;20003;-75
2022/11/15 05:23:35;;;;;;;;;;;;;;;16.67;64.64;100746.94;5049164;28;19909;-73
2022/11/15 05:26:02;;;;;;;;;;;;;;;16.33;65.95;100745.69;5031892;28;19921;-75
2022/11/15 05:28:27;;;;;;;;;;;;;;;17.02;63.46;100746.19;5031438;28;20000;-74
2022/11/15 05:30:52;;;;;;;;;;;;;;;17.02;63.60;100735.31;5031627;28;19971;-74
2022/11/15 05:33:18;;;;;;;;;;;;;;;16.93;63.54;100742.38;5031689;28;19925;-74
2022/11/15 05:35:50;;;;;;;;;;;;;;;16.89;64.47;100749.44;5030876;28;19916;-74
2022/11/15 05:38:15;;;;;;;;;;;;;;;17.21;63.37;100743.75;5033028;28;19916;-74
2022/11/15 05:40:40;;;;;;;;;;;;;;;17.15;63.11;100737.53;5035640;28;19928;-74
2022/11/15 05:43:06;;;;;;;;;;;;;;;17.22;62.85;100742.66;5034047;28;20092;-74
2022/11/15 05:45:33;;;;;;;;;;;;;;;17.03;63.22;100753.25;5035407;28;20369;-75
2022/11/15 05:48:00;;;;;;;;;;;;;;;17.12;63.93;100759.78;5043768;28;20387;-74
2022/11/15 05:50:25;;;;;;;;;;;;;;;17.50;62.29;100758.47;5055613;28;19917;-73
2022/11/15 05:52:51;;;;;;;;;;;;;;;17.34;62.96;100764.94;5055191;28;20020;-74
2022/11/15 05:55:16;;;;;;;;;;;;;;;16.88;64.92;100766.00;5055245;28;20000;-74
2022/11/15 05:57:42;;;;;;;;;;;;;;;17.17;63.15;100765.22;5055175;28;19917;-75
2022/11/15 06:00:09;;;;;;;;;;;;;;;16.95;64.83;100769.25;5055157;28;20282;-73
2022/11/15 06:02:34;;;;;;;;;;;;;;;16.71;65.78;100758.06;5055803;28;20319;-75
2022/11/15 06:04:59;;;;;;;;;;;;;;;17.19;64.46;100764.94;5055289;28;19942;-75
2022/11/15 06:07:25;;;;;;;;;;;;;;;17.08;64.12;100768.75;5054846;28;19916;-76
2022/11/15 06:09:50;;;;;;;;;;;;;;;17.42;62.66;100772.56;5054677;28;19924;-75
2022/11/15 06:12:15;;;;;;;;;;;;;;;17.20;64.02;100766.56;5055194;28;19958;-75
2022/11/15 06:14:40;;;;;;;;;;;;;;;17.45;63.25;100772.03;5054883;28;19999;-75
2022/11/15 06:17:05;;;;;;;;;;;;;;;17.43;62.96;100775.00;5054681;28;19916;-75
2022/11/15 06:19:32;;;;;;;;;;;;;;;17.49;63.34;100765.00;5053862;28;20027;-74
2022/11/15 06:21:58;;;;;;;;;;;;;;;17.28;63.67;100775.00;5035070;28;19948;-74
2022/11/15 06:24:23;;;;;;;;;;;;;;;17.60;62.57;100774.75;5034603;28;19956;-75
2022/11/15 06:26:49;;;;;;;;;;;;;;;17.45;63.02;100767.38;5035075;28;19909;-75
2022/11/15 06:29:14;;;;;;;;;;;;;;;17.40;63.24;100774.72;5043353;28;19978;-74
2022/11/15 06:31:39;;;;;;;;;;;;;;;17.48;63.20;100772.31;5052905;28;19912;-75
2022/11/15 06:34:04;;;;;;;;;;;;;;;17.18;64.21;100780.41;5054394;28;19919;-75
2022/11/15 06:36:29;;;;;;;;;;;;;;;17.48;62.98;100780.47;5054545;28;19916;-75
2022/11/15 06:38:56;;;;;;;;;;;;;;;17.42;63.49;100789.69;5054619;28;19924;-75
2022/11/15 06:41:21;;;;;;;;;;;;;;;17.39;63.88;100792.91;5040314;28;19920;-75
2022/11/15 06:43:46;;;;;;;;;;;;;;;17.11;65.10;100795.34;5045546;28;19924;-74
2022/11/15 06:46:11;;;;;;;;;;;;;;;17.22;64.56;100797.81;5044706;28;19936;-74
2022/11/15 06:48:37;;;;;;;;;;;;;;;16.93;66.09;100796.66;5043871;28;19917;-74
2022/11/15 06:51:03;;;;;;;;;;;;;;;16.85;66.90;100799.91;5042863;28;19917;-73
2022/11/15 06:53:29;;;;;;;;;;;;;;;17.00;65.61;100794.50;5042238;28;19913;-75
2022/11/15 06:55:58;;;;;;;;;;;;;;;16.99;64.91;100797.50;5034073;28;20365;-74
2022/11/15 06:58:23;;;;;;;;;;;;;;;16.71;66.35;100804.19;5034155;28;19941;-75
2022/11/15 07:00:48;;;;;;;;;;;;;;;17.22;65.01;100805.13;5033246;28;19923;-74
2022/11/15 07:03:13;;;;;;;;;;;;;;;17.50;63.71;100802.75;5034068;28;19920;-75
2022/11/15 07:05:39;;;;;;;;;;;;;;;17.28;64.72;100802.16;5034320;28;19913;-76
2022/11/15 07:08:04;;;;;;;;;;;;;;;17.39;64.08;100805.72;5033600;28;19913;-76
2022/11/15 07:10:29;;;;;;;;;;;;;;;17.19;64.67;100811.13;5033461;28;19917;-75
2022/11/15 07:12:55;;;;;;;;;;;;;;;17.16;65.84;100807.03;5033092;28;19924;-76
2022/11/15 07:15:21;;;;;;;;;;;;;;;16.90;66.60;100813.50;5041922;28;19916;-75
2022/11/15 07:17:46;;;;;;;;;;;;;;;17.39;64.56;100803.78;5044929;28;19916;-75
2022/11/15 07:20:13;;;;;;;;;;;;;;;17.44;64.11;100809.25;5040749;28;19922;-74
2022/11/15 07:22:38;;;;;;;;;;;;;;;17.59;63.66;100808.47;5040679;28;19923;-74
2022/11/15 07:25:03;;;;;;;;;;;;;;;17.47;64.02;100807.91;5044509;28;20037;-76
2022/11/15 07:27:29;;;;;;;;;;;;;;;17.75;63.54;100812.78;5040065;28;20350;-74
2022/11/15 07:29:54;;;;;;;;;;;;;;;17.79;62.98;100827.47;5038478;28;19946;-74
2022/11/15 07:32:19;;;;;;;;;;;;;;;17.68;64.12;100822.31;5042714;28;19967;-77
2022/11/15 07:34:45;;;;;;;;;;;;;;;17.93;63.26;100825.00;5040416;28;20380;-74
2022/11/15 07:37:11;;;;;;;;;;;;;;;17.84;63.42;100826.66;5040564;28;19919;-73
2022/11/15 07:39:36;;;;;;;;;;;;;;;18.01;62.69;100825.28;5043224;28;20393;-75
2022/11/15 07:44:45;;;;;;;;;;;;;;;18.14;62.42;100832.06;5044756;28;19920;-74
2022/11/15 07:47:10;;;;;;;;;;;;;;;18.06;63.07;100830.69;5044187;28;20287;-76
2022/11/15 07:49:35;;;;;;;;;;;;;;;17.94;63.59;100823.94;5045766;28;19920;-78
2022/11/15 07:52:02;;;;;;;;;;;;;;;18.17;62.54;100815.19;5044393;28;20356;-75
2022/11/15 07:54:27;;;;;;;;;;;;;;;18.34;61.99;100800.16;5043480;28;19924;-75
2022/11/15 07:56:52;;;;;;;;;;;;;;;18.16;62.57;100808.91;5046435;28;20364;-75
2022/11/15 07:59:19;;;;;;;;;;;;;;;18.11;63.00;100808.13;5039090;28;19927;-75
2022/11/15 08:01:44;;;;;;;;;;;;;;;18.15;63.15;100810.03;5038268;28;20388;-74
2022/11/15 08:04:10;;;;;;;;;;;;;;;18.35;61.78;100807.25;5041514;28;19913;-74
2022/11/15 08:06:36;;;;;;;;;;;;;;;17.52;64.45;100813.34;5041921;28;19924;-73
2022/11/15 08:09:03;;;;;;;;;;;;;;;17.95;63.68;100811.97;5044284;28;19918;-76
2022/11/15 08:11:29;;;;;;;;;;;;;;;18.30;62.99;100809.97;5039336;28;19960;-75
2022/11/15 08:13:54;;;;;;;;;;;;;;;18.24;63.37;100815.69;5025558;28;19979;-75
2022/11/15 08:16:19;;;;;;;;;;;;;;;18.24;63.36;100813.78;5045604;28;19963;-76
2022/11/15 08:18:44;;;;;;;;;;;;;;;18.07;63.17;100823.34;5044856;28;19967;-76
2022/11/15 08:21:17;;;;;;;;;;;;;;;18.35;62.71;100817.31;5047591;28;19952;-75
2022/11/15 08:23:43;;;;;;;;;;;;;;;18.04;64.08;100822.00;5060836;28;19974;-75
2022/11/15 08:26:08;;;;;;;;;;;;;;;17.92;64.75;100815.25;5049387;28;20388;-75
2022/11/15 08:28:33;;;;;;;;;;;;;;;18.23;63.49;100814.09;5054878;28;19920;-74
2022/11/15 08:30:58;;;;;;;;;;;;;;;17.93;64.52;100827.72;5048978;28;19917;-75
2022/11/15 08:33:24;;;;;;;;;;;;;;;17.95;64.51;100817.41;5049204;28;19912;-76
2022/11/15 08:35:49;;;;;;;;;;;;;;;18.20;63.94;100806.50;5049639;28;19913;-75
2022/11/15 08:38:14;;;;;;;;;;;;;;;18.15;63.68;100811.91;5049545;28;19916;-75
2022/11/15 08:40:40;;;;;;;;;;;;;;;18.18;63.84;100801.31;5049989;28;19986;-74
2022/11/15 08:43:05;;;;;;;;;;;;;;;18.07;64.58;100799.72;5041845;28;19925;-74
2022/11/15 08:45:30;;;;;;;;;;;;;;;17.78;65.77;100795.94;5043157;28;20003;-75
2022/11/15 08:47:56;;;;;;;;;;;;;;;18.43;63.56;100792.28;5049555;28;19912;-73
2022/11/15 08:50:21;;;;;;;;;;;;;;;18.59;62.68;100787.59;5049345;28;20359;-73
2022/11/15 08:52:48;;;;;;;;;;;;;;;18.46;63.26;100783.56;5049153;28;19970;-72
2022/11/15 08:55:13;;;;;;;;;;;;;;;18.20;64.50;100782.00;5061105;28;20099;-73
2022/11/15 08:57:38;;;;;;;;;;;;;;;18.31;64.17;100789.03;5048632;28;19920;-72
2022/11/15 09:00:04;;;;;;;;;;;;;;;18.53;63.11;100786.81;5048700;28;19925;-73
2022/11/15 09:02:29;;;;;;;;;;;;;;;18.53;63.72;100788.72;5060649;28;20382;-73
2022/11/15 09:04:54;;;;;;;;;;;;;;;18.65;62.96;100792.75;5069539;28;19916;-73
2022/11/15 09:07:19;;;;;;;;;;;;;;;18.46;63.44;100785.47;5068702;28;20473;-73
2022/11/15 09:09:44;;;;;;;;;;;;;;;18.41;64.20;100780.84;5055785;28;20288;-73
2022/11/15 09:12:10;;;;;;;;;;;;;;;18.67;62.96;100776.13;5049804;28;19912;-73
2022/11/15 09:14:35;;;;;;;;;;;;;;;18.70;63.11;100770.94;5052605;28;20372;-72
2022/11/15 09:17:01;;;;;;;;;;;;;;;18.77;62.53;100770.63;5055227;28;19920;-71
2022/11/15 09:19:26;;;;;;;;;;;;;;;18.39;63.94;100772.13;5047073;28;20242;-74
2022/11/15 09:21:51;;;;;;;;;;;;;;;18.61;63.25;100778.06;5056110;28;19917;-72
2022/11/15 09:24:17;;;;;;;;;;;;;;;18.86;62.63;100771.66;5041819;28;20345;-73
2022/11/15 09:26:42;;;;;;;;;;;;;;;18.94;62.12;100773.78;5044003;28;19920;-72
2022/11/15 09:29:08;;;;;;;;;;;;;;;18.52;63.70;100770.75;5042421;28;19928;-70
2022/11/15 09:31:33;;;;;;;;;;;;;;;18.49;63.52;100769.41;5041465;28;19917;-72
2022/11/15 09:33:58;;;;;;;;;;;;;;;18.41;63.98;100768.06;5043552;28;19995;-72
2022/11/15 09:36:24;;;;;;;;;;;;;;;18.79;63.07;100768.44;5047289;28;19959;-73
2022/11/15 09:38:49;;;;;;;;;;;;;;;18.31;63.39;100765.38;5072658;28;19912;-74
2022/11/15 09:41:14;;;;;;;;;;;;;;;18.32;64.06;100769.72;5057358;28;19948;-72
2022/11/15 09:43:42;;;;;;;;;;;;;;;18.71;62.99;100769.03;5044922;28;19917;-72
2022/11/15 09:46:15;;;;;;;;;;;;;;;18.84;62.68;100769.22;5061311;28;19924;-72
2022/11/15 09:48:52;;;;;;;;;;;;;;;19.00;62.11;100753.59;5072327;28;19916;-73
2022/11/15 09:51:32;;;;;;;;;;;;;;;18.99;62.29;100760.94;5072109;28;19927;-73
2022/11/15 09:53:57;;;;;;;;;;;;;;;19.30;61.38;100765.06;5072484;28;19909;-72
2022/11/15 09:56:26;;;;;;;;;;;;;;;18.56;63.16;100771.81;5059345;28;19946;-73
2022/11/15 09:59:18;;;;;;;;;;;;;;;18.76;63.27;100764.38;5055626;28;19916;-72
2022/11/15 10:02:01;;;;;;;;;;;;;;;18.58;63.39;100765.00;5068104;28;20402;-74
2022/11/15 10:04:27;;;;;;;;;;;;;;;18.59;63.64;100757.66;5071742;28;19917;-75
2022/11/15 10:07:11;;;;;;;;;;;;;;;18.68;63.21;100753.25;5052308;28;20008;-73
2022/11/15 10:09:51;;;;;;;;;;;;;;;19.09;62.05;100754.63;5052288;28;19917;-72
2022/11/15 10:12:17;;;;;;;;;;;;;;;19.12;61.80;100745.91;5041465;28;19916;-72
2022/11/15 10:14:42;;;;;;;;;;;;;;;18.69;62.73;100746.72;5048446;28;20376;-73
2022/11/15 10:17:07;;;;;;;;;;;;;;;18.60;63.23;100746.47;5054628;28;20038;-71
2022/11/15 10:19:45;;;;;;;;;;;;;;;18.97;61.71;100745.97;5068007;28;20318;-72
2022/11/15 10:22:16;;;;;;;;;;;;;;;19.10;62.72;100735.25;5067581;28;20376;-73
2022/11/15 10:24:43;;;;;;;;;;;;;;;19.69;59.73;100732.34;5054402;28;19920;-72
2022/11/15 10:27:12;;;;;;;;;;;;;;;19.56;59.98;100738.44;5050871;28;19909;-72
2022/11/15 10:29:42;;;;;;;;;;;;;;;19.66;59.92;100727.44;5072612;28;19916;-74
2022/11/15 10:32:09;;;;;;;;;;;;;;;18.91;62.12;100730.78;5069971;28;19920;-74
2022/11/15 10:34:35;;;;;;;;;;;;;;;19.31;60.88;100733.19;5071531;28;19926;-73
2022/11/15 10:37:02;;;;;;;;;;;;;;;19.07;61.22;100735.03;5061403;28;19917;-73
2022/11/15 10:39:28;;;;;;;;;;;;;;;19.22;60.12;100729.47;5051253;28;20051;-74
2022/11/15 10:41:53;;;;;;;;;;;;;;;19.69;59.33;100717.91;5045056;28;19995;-74
2022/11/15 10:44:24;;;;;;;;;;;;;;;19.67;59.05;100714.66;5041220;28;19920;-75
2022/11/15 10:46:55;;;;;;;;;;;;;;;19.36;59.68;100722.28;5041935;28;20384;-74
2022/11/15 10:49:20;;;;;;;;;;;;;;;19.27;59.41;100721.25;5049772;28;20230;-71
2022/11/15 10:51:53;;;;;;;;;;;;;;;19.64;58.49;100707.03;5051478;28;19982;-73
2022/11/15 10:54:30;;;;;;;;;;;;;;;19.45;59.02;100703.41;5051736;28;19931;-73
2022/11/15 10:56:57;;;;;;;;;;;;;;;18.85;60.46;100707.41;5048239;28;20346;-73
2022/11/15 10:59:30;;;;;;;;;;;;;;;19.34;58.28;100702.66;5050849;28;20304;-73
2022/11/15 11:01:56;;;;;;;;;;;;;;;19.22;59.66;100700.28;5050611;28;19963;-71
2022/11/15 11:04:21;;;;;;;;;;;;;;;18.97;59.74;100713.28;5051610;28;19948;-72
2022/11/15 11:06:51;;;;;;;;;;;;;;;18.78;58.92;100715.88;5050920;28;20364;-72
2022/11/15 11:09:36;;;;;;;;;;;;;;;19.35;57.38;100707.03;5050863;28;19913;-71
2022/11/15 11:12:02;;;;;;;;;;;;;;;19.86;56.25;100697.25;5050133;28;19940;-72
2022/11/15 11:14:30;;;;;;;;;;;;;;;19.58;56.75;100700.81;5051545;28;20476;-72
2022/11/15 11:17:16;;;;;;;;;;;;;;;18.13;60.27;100686.28;5062647;28;19919;-70
2022/11/15 11:19:41;;;;;;;;;;;;;;;19.33;57.69;100682.00;5071207;28;20403;-73
2022/11/15 11:22:10;;;;;;;;;;;;;;;18.72;59.34;100672.63;5070326;28;19916;-71
2022/11/15 11:24:44;;;;;;;;;;;;;;;19.21;58.60;100673.34;5058363;28;20631;-71
2022/11/15 11:27:21;;;;;;;;;;;;;;;18.96;59.11;100662.66;5048781;28;20292;-73
2022/11/15 11:30:05;;;;;;;;;;;;;;;19.19;58.00;100662.75;5051444;28;20295;-70
2022/11/15 11:32:49;;;;;;;;;;;;;;;18.78;59.40;100661.44;5050500;28;20376;-71
2022/11/15 11:35:30;;;;;;;;;;;;;;;19.12;57.72;100658.72;5050233;28;19924;-71
2022/11/15 11:38:17;;;;;;;;;;;;;;;19.59;56.93;100671.66;5057216;28;19958;-71
2022/11/15 11:40:42;;;;;;;;;;;;;;;19.76;55.87;100664.63;5069649;28;19974;-72
2022/11/15 11:43:26;;;;;;;;;;;;;;;19.65;55.81;100645.97;5070361;28;20303;-72
2022/11/15 11:45:58;;;;;;;;;;;;;;;19.62;56.42;100650.06;5052547;28;19960;-71
2022/11/15 11:48:35;;;;;;;;;;;;;;;18.64;58.49;100656.91;5039945;28;19999;-72
2022/11/15 11:51:05;;;;;;;;;;;;;;;18.94;58.26;100653.97;5041534;28;19924;-73
2022/11/15 11:53:30;;;;;;;;;;;;;;;18.91;58.46;100658.06;5040104;28;20198;-71
2022/11/15 11:55:58;;;;;;;;;;;;;;;19.09;57.72;100654.66;5039928;28;20332;-71
2022/11/15 11:58:33;;;;;;;;;;;;;;;19.04;57.67;100651.16;5039097;28;19943;-71
2022/11/15 12:01:08;;;;;;;;;;;;;;;19.09;57.92;100653.81;5038862;28;19917;-72
2022/11/15 12:03:36;;;;;;;;;;;;;;;18.88;58.08;100653.19;5038495;28;19920;-72
2022/11/15 12:06:04;;;;;;;;;;;;;;;19.34;56.55;100641.94;5038742;28;19960;-73
2022/11/15 12:08:39;;;;;;;;;;;;;;;18.92;56.82;100637.91;5040634;28;20353;-70
2022/11/15 12:11:04;;;;;;;;;;;;;;;18.57;58.08;100646.34;5039069;28;19948;-73
2022/11/15 12:13:33;;;;;;;;;;;;;;;18.81;57.76;100641.81;5038960;28;19927;-71
2022/11/15 12:16:12;;;;;;;;;;;;;;;19.04;56.73;100634.81;5038600;28;19919;-73
2022/11/15 12:18:37;;;;;;;;;;;;;;;18.51;56.87;100631.16;5040250;28;19917;-70
2022/11/15 12:21:07;;;;;;;;;;;;;;;18.52;56.97;100631.94;5042446;28;19970;-73
2022/11/15 12:23:37;;;;;;;;;;;;;;;18.79;56.56;100638.53;5066137;28;19963;-72
2022/11/15 12:26:06;;;;;;;;;;;;;;;18.18;56.31;100640.03;5048735;28;19916;-72
2022/11/15 12:28:37;;;;;;;;;;;;;;;18.59;55.42;100629.72;5049653;28;19916;-70
2022/11/15 12:31:19;;;;;;;;;;;;;;;18.73;55.29;100628.00;5049584;28;20015;-72
2022/11/15 12:33:46;;;;;;;;;;;;;;;18.21;54.93;100623.13;5049838;28;20083;-72
2022/11/15 12:36:17;;;;;;;;;;;;;;;18.52;55.22;100619.16;5051090;28;19924;-72
2022/11/15 12:38:51;;;;;;;;;;;;;;;19.35;52.42;100617.13;5068184;28;20436;-72
2022/11/15 12:41:18;;;;;;;;;;;;;;;19.00;53.11;100620.97;5046229;28;19921;-72
2022/11/15 12:43:43;;;;;;;;;;;;;;;18.79;53.11;100605.09;5038681;28;19927;-73
2022/11/15 12:46:18;;;;;;;;;;;;;;;19.30;50.84;100589.91;5039412;28;19917;-72
2022/11/15 12:48:43;;;;;;;;;;;;;;;18.61;51.55;100584.81;5039348;28;19921;-73
2022/11/15 12:51:08;;;;;;;;;;;;;;;18.69;51.34;100589.63;5037270;28;19913;-73
2022/11/15 12:53:34;;;;;;;;;;;;;;;18.67;50.17;100580.94;5065071;28;19940;-72